Time;durP1;ratioP1;P1;durP2;ratioP2;P2;SDS_P1;SDS_P2;PMS_P1;PMS_P2;Temp;Humidity;BMP_temperature;BMP_pressure;BME280_temperature;BME280_humidity;BME280_pressure;Samples;Min_cycle;Max_cycle;Signal;HPM_P1;HPM_P2
2022/06/27 00:02:26;;;;;;;3.08;2.83;;;;;;;21.47;75.07;100709.25;4975401;28;20054;-83
2022/06/27 00:04:53;;;;;;;4.82;2.72;;;;;;;21.42;74.97;100706.84;4973446;28;20042;-84
2022/06/27 00:07:21;;;;;;;3.30;3.10;;;;;;;21.39;75.50;100701.66;4969036;28;20505;-83
2022/06/27 00:09:49;;;;;;;3.00;2.80;;;;;;;21.36;75.76;100704.50;4973116;28;20557;-83
2022/06/27 00:12:18;;;;;;;2.92;2.63;;;;;;;21.28;76.00;100693.41;4957799;28;20572;-84
2022/06/27 00:14:48;;;;;;;2.85;2.65;;;;;;;21.21;76.18;100689.34;4975966;28;20473;-83
2022/06/27 00:17:17;;;;;;;4.00;2.58;;;;;;;21.15;76.12;100691.38;4957874;28;20511;-83
2022/06/27 00:19:48;;;;;;;3.22;2.42;;;;;;;21.12;76.48;100688.03;4978542;28;20837;-82
2022/06/27 00:22:14;;;;;;;3.58;2.70;;;;;;;21.10;75.79;100703.22;4979406;28;20111;-82
2022/06/27 00:24:42;;;;;;;2.80;2.60;;;;;;;21.07;76.49;100704.25;4979690;28;20611;-82
2022/06/27 00:27:08;;;;;;;2.88;2.55;;;;;;;21.08;76.45;100715.72;4974857;28;20042;-83
2022/06/27 00:29:35;;;;;;;2.92;2.67;;;;;;;21.08;76.35;100726.38;4981824;28;20512;-82
2022/06/27 00:32:02;;;;;;;2.97;2.38;;;;;;;21.07;76.32;100730.00;4982909;28;20097;-83
2022/06/27 00:34:32;;;;;;;2.78;2.55;;;;;;;21.08;76.21;100732.59;4981569;28;20057;-84
2022/06/27 00:36:59;;;;;;;2.63;2.38;;;;;;;21.06;76.31;100720.31;4980248;28;20050;-83
2022/06/27 00:39:27;;;;;;;2.60;2.42;;;;;;;21.06;76.28;100710.50;4983543;28;20042;-84
2022/06/27 00:41:54;;;;;;;3.03;2.83;;;;;;;21.01;76.57;100704.56;4982421;28;20066;-83
2022/06/27 00:44:35;;;;;;;2.50;2.30;;;;;;;20.90;76.68;100710.44;4967121;28;20050;-83
2022/06/27 00:47:05;;;;;;;2.85;2.50;;;;;;;20.79;76.71;100703.03;4980848;28;20038;-83
2022/06/27 00:49:32;;;;;;;5.63;2.67;;;;;;;20.69;76.80;100716.81;4982377;28;20073;-83
2022/06/27 00:52:05;;;;;;;2.85;2.65;;;;;;;20.60;76.62;100719.00;4982387;28;20089;-83
2022/06/27 00:54:34;;;;;;;2.47;2.38;;;;;;;20.53;76.65;100717.56;4986108;28;20089;-85
2022/06/27 00:57:02;;;;;;;3.00;2.67;;;;;;;20.48;76.92;100712.50;4988171;28;20141;-84
2022/06/27 00:59:29;;;;;;;2.63;2.10;;;;;;;20.40;77.47;100705.81;4998249;28;20042;-84
2022/06/27 01:01:56;;;;;;;3.13;2.92;;;;;;;20.36;77.36;100691.81;4985212;28;20579;-84
2022/06/27 01:04:24;;;;;;;2.42;2.33;;;;;;;20.36;77.75;100693.63;4998944;28;20042;-84
2022/06/27 01:06:52;;;;;;;3.45;2.90;;;;;;;20.33;78.51;100692.81;4986305;28;20111;-84
2022/06/27 01:09:21;;;;;;;3.70;2.55;;;;;;;20.34;78.93;100683.06;4995630;28;20058;-84
2022/06/27 01:11:51;;;;;;;3.75;3.13;;;;;;;20.37;79.20;100688.22;4996274;28;20038;-84
2022/06/27 01:14:20;;;;;;;3.67;3.38;;;;;;;20.39;79.57;100698.78;4984314;28;20650;-84
2022/06/27 01:16:50;;;;;;;3.53;2.85;;;;;;;20.41;79.51;100696.94;4979641;28;20057;-83
2022/06/27 01:19:19;;;;;;;3.33;3.13;;;;;;;20.44;79.65;100689.66;4979134;28;20046;-83
2022/06/27 01:21:54;;;;;;;2.72;2.53;;;;;;;20.46;80.58;100694.91;4979981;28;20057;-82
2022/06/27 01:24:27;;;;;;;4.22;3.20;;;;;;;20.48;80.83;100690.34;4996082;28;20180;-83
2022/06/27 01:26:57;;;;;;;2.80;2.60;;;;;;;20.50;81.52;100692.00;4976668;28;20053;-85
2022/06/27 01:29:23;;;;;;;4.82;3.10;;;;;;;20.50;83.19;100702.63;4998908;28;20042;-83
2022/06/27 01:31:53;;;;;;;3.65;2.78;;;;;;;20.47;84.87;100723.22;4981767;28;20128;-83
2022/06/27 01:34:20;;;;;;;3.25;2.95;;;;;;;20.42;86.75;100742.03;4981318;28;20672;-83
2022/06/27 01:36:48;;;;;;;3.53;3.22;;;;;;;20.37;87.40;100744.06;4975426;28;20145;-82
2022/06/27 01:39:27;;;;;;;5.22;3.35;;;;;;;20.31;88.48;100754.97;4974742;28;20049;-83
2022/06/27 01:42:05;;;;;;;3.80;3.50;;;;;;;20.20;90.33;100747.53;4980186;28;20101;-83
2022/06/27 01:44:34;;;;;;;3.40;3.20;;;;;;;20.10;91.09;100746.25;4981650;28;20042;-84
2022/06/27 01:47:00;;;;;;;5.03;3.58;;;;;;;20.04;92.07;100754.50;4963762;28;20508;-84
2022/06/27 01:49:32;;;;;;;3.75;3.55;;;;;;;19.97;92.93;100751.28;4981171;28;20156;-83
2022/06/27 01:52:01;;;;;;;4.70;3.85;;;;;;;19.91;93.42;100740.97;4978964;28;20069;-84
2022/06/27 01:54:29;;;;;;;4.38;3.80;;;;;;;19.86;94.40;100729.69;4962577;28;20054;-82
2022/06/27 01:56:58;;;;;;;5.13;4.55;;;;;;;19.83;94.61;100728.03;4977824;28;20570;-83
2022/06/27 01:59:29;;;;;;;4.80;4.47;;;;;;;19.79;95.18;100723.72;4980438;28;20042;-84
2022/06/27 02:01:58;;;;;;;7.65;4.95;;;;;;;19.71;95.53;100728.53;4981178;28;20803;-84
2022/06/27 02:04:26;;;;;;;5.25;4.85;;;;;;;19.63;96.02;100732.44;4979475;28;20050;-83
2022/06/27 02:06:53;;;;;;;6.38;5.80;;;;;;;19.58;96.12;100747.72;4975123;28;20113;-84
2022/06/27 02:09:24;;;;;;;6.72;5.75;;;;;;;19.53;96.42;100751.47;4959767;28;20055;-83
2022/06/27 02:12:18;;;;;;;8.13;6.25;;;;;;;19.46;96.73;100746.47;4961670;28;20058;-83
2022/06/27 02:14:55;;;;;;;7.68;6.95;;;;;;;19.38;96.75;100743.28;4980701;28;20067;-82
2022/06/27 02:17:23;;;;;;;8.55;7.38;;;;;;;19.31;97.24;100763.91;4978104;28;20089;-84
2022/06/27 02:19:51;;;;;;;7.68;6.90;;;;;;;19.27;97.17;100764.13;4978732;28;20417;-83
2022/06/27 02:22:18;;;;;;;7.57;6.88;;;;;;;19.25;96.92;100755.38;4993944;28;20097;-84
2022/06/27 02:27:33;;;;;;;7.07;6.47;;;;;;;19.09;97.58;100769.28;4973799;28;20062;-82
2022/06/27 02:30:01;;;;;;;6.88;6.28;;;;;;;19.07;97.61;100768.47;4965876;28;20485;-83
2022/06/27 02:32:31;;;;;;;8.38;7.28;;;;;;;19.05;97.87;100770.34;4979894;28;20046;-83
2022/06/27 02:34:58;;;;;;;6.43;5.93;;;;;;;19.03;97.58;100766.91;4961257;28;20062;-83
2022/06/27 02:37:26;;;;;;;8.88;8.07;;;;;;;19.01;97.96;100763.47;4972606;28;20070;-82
2022/06/27 02:39:57;;;;;;;7.57;6.88;;;;;;;19.01;97.92;100769.63;4992336;28;20057;-84
2022/06/27 02:42:25;;;;;;;7.75;7.07;;;;;;;19.01;97.98;100769.63;4956292;28;21082;-84
2022/06/27 02:44:51;;;;;;;7.82;7.22;;;;;;;19.07;98.04;100784.41;4969411;28;20054;-84
2022/06/27 02:47:23;;;;;;;7.63;6.93;;;;;;;19.11;97.79;100775.41;4994841;28;20393;-84
2022/06/27 02:49:51;;;;;;;5.75;5.35;;;;;;;19.14;97.23;100767.31;4986299;28;20073;-82
2022/06/27 02:52:28;;;;;;;9.32;8.10;;;;;;;19.17;97.30;100758.34;4982605;28;20158;-84
2022/06/27 02:55:01;;;;;;;7.75;7.03;;;;;;;19.18;97.13;100745.00;4967723;28;20058;-83
2022/06/27 02:57:40;;;;;;;10.13;7.25;;;;;;;19.12;97.55;100729.34;5000783;28;20073;-82
2022/06/27 03:00:09;;;;;;;7.40;6.80;;;;;;;19.11;97.34;100732.06;4996344;28;20573;-83
2022/06/27 03:02:42;;;;;;;6.55;6.03;;;;;;;19.06;97.23;100740.25;4980085;28;20070;-83
2022/06/27 03:05:09;;;;;;;7.37;6.67;;;;;;;18.99;97.74;100744.97;4979773;28;20042;-85
2022/06/27 03:07:43;;;;;;;7.40;6.80;;;;;;;18.93;97.90;100733.72;4974762;28;20692;-83
2022/06/27 03:10:14;;;;;;;8.15;6.90;;;;;;;18.89;98.71;100717.09;4961868;28;20097;-83
2022/06/27 03:12:42;;;;;;;8.32;7.45;;;;;;;18.87;99.54;100712.75;4963250;28;20066;-82
2022/06/27 03:15:09;;;;;;;8.25;7.43;;;;;;;18.84;99.27;100703.16;4989490;28;20037;-84
2022/06/27 03:17:36;;;;;;;7.47;6.88;;;;;;;18.81;99.21;100697.94;4994272;28;20038;-84
2022/06/27 03:20:06;;;;;;;10.45;7.30;;;;;;;18.78;99.45;100701.59;4991764;28;20053;-84
2022/06/27 03:22:33;;;;;;;7.65;6.97;;;;;;;18.77;99.98;100688.41;4986358;28;20042;-84
2022/06/27 03:25:00;;;;;;;6.05;5.55;;;;;;;18.78;99.40;100695.44;4969571;28;20587;-82
2022/06/27 03:27:27;;;;;;;8.85;7.95;;;;;;;18.80;99.28;100701.56;4977191;28;20046;-83
2022/06/27 03:30:03;;;;;;;8.50;6.35;;;;;;;18.81;98.94;100690.88;4982040;28;20046;-83
2022/06/27 03:32:30;;;;;;;7.25;6.75;;;;;;;18.81;98.69;100695.28;4994365;28;20053;-83
2022/06/27 03:34:57;;;;;;;7.50;6.80;;;;;;;18.80;99.06;100707.72;4972721;28;20046;-83
2022/06/27 03:37:24;;;;;;;6.93;6.35;;;;;;;18.77;98.96;100701.66;4960940;28;20046;-84
2022/06/27 03:39:56;;;;;;;8.10;7.30;;;;;;;18.78;98.93;100709.56;4966818;28;20104;-83
2022/06/27 03:42:23;;;;;;;7.57;6.97;;;;;;;18.78;99.05;100706.03;4995191;28;20161;-83
2022/06/27 03:44:50;;;;;;;6.78;6.18;;;;;;;18.80;98.88;100713.00;4980911;28;20042;-85
2022/06/27 03:47:20;;;;;;;8.32;7.63;;;;;;;18.83;98.63;100718.19;4976108;28;20139;-82
2022/06/27 03:50:01;;;;;;;7.45;6.85;;;;;;;18.87;98.47;100712.75;4977263;28;20043;-84
2022/06/27 03:52:30;;;;;;;6.68;6.10;;;;;;;18.92;98.03;100708.16;4975696;28;20057;-83
2022/06/27 03:54:56;;;;;;;7.05;6.35;;;;;;;18.98;97.72;100711.41;4993580;28;20161;-84
2022/06/27 03:57:23;;;;;;;8.30;7.43;;;;;;;19.05;96.97;100708.50;4957342;28;20137;-82
2022/06/27 03:59:50;;;;;;;7.38;6.78;;;;;;;19.05;96.65;100705.84;4980283;28;20042;-82
2022/06/27 04:02:17;;;;;;;6.28;5.78;;;;;;;19.08;96.22;100714.50;4980745;28;20038;-84
2022/06/27 04:04:46;;;;;;;7.75;7.00;;;;;;;19.08;96.18;100698.59;4975656;28;20054;-84
2022/06/27 04:07:13;;;;;;;8.02;6.70;;;;;;;19.13;96.07;100696.59;4975271;28;20050;-83
2022/06/27 04:09:47;;;;;;;7.57;6.85;;;;;;;19.13;96.12;100691.28;4976873;28;20058;-84
2022/06/27 04:12:14;;;;;;;7.55;6.82;;;;;;;19.11;95.85;100679.00;4978432;28;20080;-81
2022/06/27 04:14:40;;;;;;;6.85;6.25;;;;;;;19.14;95.79;100673.59;4979123;28;20039;-85
2022/06/27 04:17:27;;;;;;;;;;;;;;;;;;;;;
2022/06/27 04:19:57;;;;;;;6.78;6.18;;;;;;;19.20;95.33;100665.31;4978350;28;20073;-84
2022/06/27 04:22:23;;;;;;;8.85;6.30;;;;;;;19.24;95.10;100652.78;4973726;28;20553;-83
2022/06/27 04:24:51;;;;;;;5.85;5.47;;;;;;;19.29;94.67;100662.25;4962938;28;20050;-83
2022/06/27 04:27:20;;;;;;;6.22;5.72;;;;;;;19.34;94.55;100654.09;4978141;28;20049;-84
2022/06/27 04:29:50;;;;;;;7.53;5.78;;;;;;;19.39;94.07;100659.22;4980519;28;20157;-84
2022/06/27 04:32:19;;;;;;;5.65;5.15;;;;;;;19.38;93.33;100649.53;4980195;28;20050;-85
2022/06/27 04:34:47;;;;;;;6.38;5.85;;;;;;;19.37;93.24;100645.13;4979023;28;20511;-83
2022/06/27 04:37:14;;;;;;;7.03;5.80;;;;;;;19.40;93.41;100643.22;4977440;28;20421;-81
2022/06/27 04:39:41;;;;;;;5.93;5.40;;;;;;;19.43;92.51;100636.91;4978519;28;20133;-83
2022/06/27 04:42:09;;;;;;;6.30;5.35;;;;;;;19.48;91.88;100634.88;4978756;28;20046;-82
2022/06/27 04:44:40;;;;;;;5.13;4.72;;;;;;;19.50;91.71;100623.28;4966192;28;20046;-82
2022/06/27 04:47:12;;;;;;;5.10;4.70;;;;;;;19.53;91.03;100613.41;4984608;28;20047;-82
2022/06/27 04:49:40;;;;;;;5.13;4.60;;;;;;;19.54;90.45;100607.19;4963436;28;20052;-82
2022/06/27 04:52:08;;;;;;;5.35;4.68;;;;;;;19.55;90.10;100606.25;4994379;28;20070;-82
2022/06/27 04:54:38;;;;;;;5.65;5.15;;;;;;;19.56;90.02;100608.84;4978011;28;20034;-83
2022/06/27 04:57:06;;;;;;;5.47;4.97;;;;;;;19.56;89.81;100610.63;4977764;28;20052;-83
2022/06/27 04:59:37;;;;;;;4.75;4.45;;;;;;;19.51;89.43;100614.34;4982129;28;20306;-83
2022/06/27 05:02:04;;;;;;;5.13;4.72;;;;;;;19.51;89.55;100616.16;4964160;28;20043;-85
2022/06/27 05:04:31;;;;;;;4.20;3.90;;;;;;;19.56;89.44;100610.63;4980965;28;20038;-84
2022/06/27 05:06:58;;;;;;;6.05;4.85;;;;;;;19.64;88.92;100619.09;4966716;28;20556;-84
2022/06/27 05:09:26;;;;;;;5.40;4.68;;;;;;;19.71;88.69;100624.97;4998489;28;20050;-83
2022/06/27 05:11:54;;;;;;;6.80;4.80;;;;;;;19.76;88.02;100623.81;4962698;28;20810;-82
2022/06/27 05:14:22;;;;;;;4.35;3.95;;;;;;;19.79;87.87;100634.31;4999414;28;20476;-83
2022/06/27 05:16:59;;;;;;;4.38;4.07;;;;;;;19.84;87.42;100634.09;4998938;28;20070;-84
2022/06/27 05:19:28;;;;;;;6.40;5.22;;;;;;;19.91;86.71;100629.38;4983535;28;20130;-83
2022/06/27 05:21:55;;;;;;;4.60;4.22;;;;;;;19.94;85.86;100632.72;4980163;28;20038;-83
2022/06/27 05:24:25;;;;;;;5.45;5.03;;;;;;;19.95;85.72;100625.63;4963836;28;20848;-82
2022/06/27 05:26:53;;;;;;;4.70;4.40;;;;;;;19.96;85.30;100619.38;4979947;28;20043;-83
2022/06/27 05:29:22;;;;;;;5.22;4.72;;;;;;;20.03;84.71;100618.13;4983793;28;20113;-83
2022/06/27 05:31:52;;;;;;;4.53;4.20;;;;;;;20.10;84.54;100627.53;4984040;28;20053;-84
2022/06/27 05:34:27;;;;;;;4.13;3.90;;;;;;;20.24;84.09;100637.47;4966084;28;20104;-82
2022/06/27 05:36:55;;;;;;;4.43;4.10;;;;;;;20.37;83.13;100635.06;4978939;28;20312;-83
2022/06/27 05:39:22;;;;;;;4.30;3.90;;;;;;;20.54;82.40;100644.00;4980129;28;20042;-83
2022/06/27 05:41:51;;;;;;;7.15;4.03;;;;;;;20.63;81.54;100657.66;4978976;28;20464;-83
2022/06/27 05:44:17;;;;;;;4.53;4.07;;;;;;;20.68;81.19;100662.75;4979653;28;20110;-83
2022/06/27 05:46:44;;;;;;;4.70;4.28;;;;;;;20.72;80.69;100664.34;4980562;28;20049;-84
2022/06/27 05:49:12;;;;;;;3.80;3.60;;;;;;;20.76;80.33;100665.91;4980510;28;20093;-81
2022/06/27 05:51:41;;;;;;;3.90;3.60;;;;;;;20.78;80.10;100677.34;4980025;28;20449;-85
2022/06/27 05:54:09;;;;;;;4.47;3.85;;;;;;;20.81;79.71;100679.84;4979670;28;20413;-84
2022/06/27 05:56:36;;;;;;;4.57;4.18;;;;;;;20.80;79.46;100694.06;4993794;28;20054;-83
2022/06/27 05:59:06;;;;;;;3.67;3.35;;;;;;;20.77;79.64;100686.25;4982077;28;20552;-83
2022/06/27 06:01:41;;;;;;;4.22;3.20;;;;;;;20.80;79.78;100694.06;4982669;28;20034;-84
2022/06/27 06:04:08;;;;;;;4.75;4.20;;;;;;;20.84;79.10;100700.09;4981306;28;20069;-83
2022/06/27 06:06:36;;;;;;;3.85;3.55;;;;;;;20.85;79.22;100706.31;4981580;28;20035;-83
2022/06/27 06:09:04;;;;;;;5.82;5.32;;;;;;;20.82;79.71;100702.00;4965075;28;20150;-84
2022/06/27 06:11:31;;;;;;;7.70;5.10;;;;;;;20.79;80.93;100702.13;4982038;28;20065;-83
2022/06/27 06:14:02;;;;;;;8.57;6.07;;;;;;;20.77;81.99;100706.69;4982274;28;20104;-84
2022/06/27 06:16:30;;;;;;;8.50;6.18;;;;;;;20.70;83.05;100710.59;4981321;28;20046;-84
2022/06/27 06:18:59;;;;;;;10.20;5.45;;;;;;;20.69;83.25;100707.03;4982680;28;20077;-83
2022/06/27 06:21:28;;;;;;;5.07;4.70;;;;;;;20.74;83.53;100706.81;4964376;28;20054;-84
2022/06/27 06:23:55;;;;;;;5.65;5.15;;;;;;;20.81;83.22;100710.91;4981955;28;20093;-83
2022/06/27 06:26:23;;;;;;;11.88;5.75;;;;;;;20.81;83.03;100716.22;4980801;28;20100;-82
2022/06/27 06:28:53;;;;;;;7.35;6.57;;;;;;;20.71;83.61;100715.81;4965040;28;20536;-83
2022/06/27 06:31:24;;;;;;;7.72;6.72;;;;;;;20.65;84.13;100716.97;4985212;28;20049;-83
2022/06/27 06:33:53;;;;;;;7.28;6.53;;;;;;;20.61;84.56;100719.84;4965230;28;20084;-83
2022/06/27 06:36:23;;;;;;;6.63;6.03;;;;;;;20.64;84.68;100709.06;4979129;28;20608;-83
2022/06/27 06:38:52;;;;;;;7.60;6.85;;;;;;;20.75;84.08;100701.44;4965082;28;20042;-83
2022/06/27 06:41:24;;;;;;;7.43;6.82;;;;;;;20.87;83.47;100697.31;4981260;28;20664;-84
2022/06/27 06:43:50;;;;;;;6.03;5.43;;;;;;;21.01;82.90;100690.41;4984349;28;20405;-84
2022/06/27 06:46:17;;;;;;;7.82;5.88;;;;;;;21.14;82.16;100692.31;4970486;28;20118;-82
2022/06/27 06:48:44;;;;;;;10.30;7.20;;;;;;;21.30;81.44;100689.72;4984082;28;20042;-83
2022/06/27 06:51:15;;;;;;;6.43;5.80;;;;;;;21.41;80.37;100683.81;4985986;28;20066;-84
2022/06/27 06:53:48;;;;;;;6.00;5.43;;;;;;;21.59;79.56;100671.34;5005573;28;20061;-83
2022/06/27 06:56:18;;;;;;;5.53;5.03;;;;;;;21.77;78.49;100671.25;4994591;28;20056;-83
2022/06/27 06:58:46;;;;;;;5.28;4.25;;;;;;;21.91;77.72;100679.31;4996582;28;20088;-82
2022/06/27 07:01:12;;;;;;;5.95;5.07;;;;;;;22.06;76.75;100677.63;4989948;28;20050;-81
2022/06/27 07:03:41;;;;;;;5.47;4.97;;;;;;;22.14;75.72;100663.84;4991781;28;20065;-84
2022/06/27 07:06:13;;;;;;;6.72;4.75;;;;;;;22.16;74.74;100655.75;4988695;28;20120;-82
2022/06/27 07:08:40;;;;;;;8.00;4.97;;;;;;;22.13;75.09;100649.63;5001182;28;20053;-83
2022/06/27 07:11:10;;;;;;;6.57;4.20;;;;;;;22.19;74.79;100658.25;4984640;28;20116;-84
2022/06/27 07:13:39;;;;;;;4.53;4.20;;;;;;;22.28;74.45;100665.69;4980619;28;20042;-84
2022/06/27 07:16:10;;;;;;;6.00;4.68;;;;;;;22.41;74.13;100671.22;4983672;28;20580;-83
2022/06/27 07:18:37;;;;;;;6.78;5.30;;;;;;;22.52;73.34;100692.78;4984360;28;20038;-85
2022/06/27 07:21:08;;;;;;;6.35;5.03;;;;;;;22.51;72.51;100722.22;4984809;28;20042;-85
2022/06/27 07:23:35;;;;;;;10.10;6.20;;;;;;;22.34;73.70;100728.50;4988269;28;20085;-81
2022/06/27 07:26:09;;;;;;;6.68;6.13;;;;;;;22.13;74.47;100723.44;4985101;28;20053;-84
2022/06/27 07:28:40;;;;;;;8.38;5.78;;;;;;;21.99;75.54;100718.88;4988948;28;20034;-84
2022/06/27 07:31:11;;;;;;;7.43;5.68;;;;;;;21.93;75.58;100724.56;4990450;28;20042;-82
2022/06/27 07:33:44;;;;;;;7.35;5.82;;;;;;;21.94;75.95;100718.28;4972679;28;20062;-85
2022/06/27 07:36:16;;;;;;;9.27;6.22;;;;;;;22.05;75.48;100702.53;5003511;28;20085;-83
2022/06/27 07:38:49;;;;;;;6.13;5.57;;;;;;;22.30;74.65;100690.47;4989120;28;20050;-82
2022/06/27 07:41:21;;;;;;;5.90;5.30;;;;;;;22.77;72.92;100670.84;4987382;28;20046;-84
2022/06/27 07:43:49;;;;;;;6.20;5.70;;;;;;;23.28;70.59;100674.94;4971430;28;20073;-84
2022/06/27 07:46:25;;;;;;;5.68;5.15;;;;;;;23.72;69.86;100673.09;4984738;28;20042;-83
2022/06/27 07:48:52;;;;;;;6.75;4.95;;;;;;;24.22;67.52;100677.00;4999331;28;20046;-85
2022/06/27 07:51:20;;;;;;;6.35;5.75;;;;;;;24.57;65.40;100678.28;4984703;28;20065;-83
2022/06/27 07:53:48;;;;;;;6.63;5.95;;;;;;;24.86;64.60;100695.06;4985657;28;20220;-83
2022/06/27 07:56:18;;;;;;;6.65;5.05;;;;;;;25.17;63.85;100700.97;4983574;28;20073;-86
2022/06/27 07:58:45;;;;;;;8.68;5.57;;;;;;;25.57;61.78;100711.59;5001541;28;20162;-85
2022/06/27 08:01:20;;;;;;;5.72;5.22;;;;;;;25.71;60.87;100697.19;4971555;28;20043;-85
2022/06/27 08:03:49;;;;;;;6.55;5.75;;;;;;;26.02;60.01;100699.47;4988002;28;20042;-83
2022/06/27 08:06:26;;;;;;;5.95;5.32;;;;;;;26.62;58.47;100719.19;5002724;28;20045;-84
2022/06/27 08:09:04;;;;;;;6.95;6.43;;;;;;;26.12;57.79;100715.78;4989683;28;20068;-85
2022/06/27 08:11:44;;;;;;;9.40;7.50;;;;;;;25.27;60.84;100725.31;4975964;28;20051;-84
2022/06/27 08:14:29;;;;;;;7.13;6.03;;;;;;;25.00;62.18;100717.38;4989203;28;20078;-85
2022/06/27 08:16:57;;;;;;;6.45;5.95;;;;;;;25.27;61.88;100714.59;5001669;28;20057;-86
2022/06/27 08:19:28;;;;;;;4.95;4.53;;;;;;;25.71;60.30;100718.66;5001502;28;20114;-86
2022/06/27 08:21:55;;;;;;;9.73;6.78;;;;;;;26.05;59.33;100713.53;4988466;28;20073;-86
2022/06/27 08:24:23;;;;;;;6.20;5.07;;;;;;;26.24;57.99;100725.59;5000479;28;20106;-84
2022/06/27 08:26:53;;;;;;;6.55;6.03;;;;;;;25.88;58.85;100738.03;4993658;28;20061;-86
2022/06/27 08:29:20;;;;;;;7.47;5.15;;;;;;;26.05;58.98;100729.63;4988663;28;20858;-84
2022/06/27 08:31:52;;;;;;;7.00;6.40;;;;;;;26.85;55.90;100733.56;4987591;28;20046;-84
2022/06/27 08:34:21;;;;;;;5.72;5.05;;;;;;;27.38;54.65;100730.41;5001084;28;20077;-86
2022/06/27 08:36:47;;;;;;;5.05;4.30;;;;;;;28.54;51.75;100720.22;4968110;28;20046;-86
2022/06/27 08:39:18;;;;;;;5.35;4.85;;;;;;;29.35;49.64;100736.69;4984159;28;20042;-84
2022/06/27 08:41:58;;;;;;;7.32;6.30;;;;;;;29.71;48.38;100733.56;4990433;28;20050;-86
2022/06/27 08:44:30;;;;;;;6.00;5.50;;;;;;;29.69;47.85;100733.72;4975531;28;20050;-85
2022/06/27 08:46:57;;;;;;;6.95;5.78;;;;;;;28.95;48.59;100736.56;4990177;28;20046;-85
2022/06/27 08:49:24;;;;;;;5.80;5.40;;;;;;;28.15;50.53;100731.47;4972242;28;20057;-84
2022/06/27 08:51:58;;;;;;;5.60;5.13;;;;;;;27.39;52.74;100725.88;5004091;28;20136;-85
2022/06/27 08:54:37;;;;;;;5.93;5.18;;;;;;;27.06;53.89;100724.84;4988029;28;20035;-85
2022/06/27 08:57:05;;;;;;;5.55;5.25;;;;;;;26.95;54.21;100744.47;4972233;28;20125;-86
2022/06/27 08:59:32;;;;;;;6.50;5.97;;;;;;;26.74;54.88;100741.59;4990047;28;20125;-84
2022/06/27 09:02:02;;;;;;;6.25;5.75;;;;;;;27.21;53.35;100734.38;4989587;28;20046;-85
2022/06/27 09:04:31;;;;;;;5.40;5.00;;;;;;;27.12;53.94;100740.47;4986643;28;20954;-86
2022/06/27 09:07:05;;;;;;;4.55;4.20;;;;;;;28.12;51.98;100731.75;4973054;28;20039;-85
2022/06/27 09:09:32;;;;;;;4.47;4.18;;;;;;;29.30;48.96;100728.16;4984290;28;20732;-85
2022/06/27 09:12:05;;;;;;;6.20;4.35;;;;;;;29.83;46.38;100737.88;4985098;28;20555;-85
2022/06/27 09:14:42;;;;;;;;;;;;;;;30.03;46.04;100738.81;5003657;28;20046;-85
2022/06/27 09:17:23;;;;;;;4.00;3.72;;;;;;;30.84;44.71;100742.31;4988678;28;19936;-84
2022/06/27 09:19:59;;;;;;;4.32;3.75;;;;;;;31.81;41.82;100741.22;4972384;28;20050;-86
2022/06/27 09:25:14;;;;;;;4.60;3.93;;;;;;;31.97;41.84;100747.81;4969703;28;20070;-84
2022/06/27 09:27:50;;;;;;;4.65;4.18;;;;;;;32.19;40.86;100751.13;4982274;28;20440;-84
2022/06/27 09:30:21;;;;;;;4.15;3.80;;;;;;;31.97;40.98;100745.97;4986633;28;20051;-85
2022/06/27 09:32:58;;;;;;;4.20;3.50;;;;;;;32.42;40.35;100744.25;4989389;28;20074;-85
2022/06/27 09:35:36;;;;;;;3.38;3.08;;;;;;;33.47;37.81;100735.44;4987460;28;20112;-86
2022/06/27 09:38:07;;;;;;;3.10;2.90;;;;;;;33.28;38.18;100737.38;4967895;28;20046;-86
2022/06/27 09:40:44;;;;;;;2.85;2.80;;;;;;;33.01;38.65;100729.34;5000267;28;20050;-86
2022/06/27 09:43:30;;;;;;;4.97;4.55;;;;;;;33.30;37.64;100737.19;4971170;28;20169;-86
2022/06/27 09:45:58;;;;;;;5.95;5.55;;;;;;;32.25;39.54;100743.22;4987083;28;20046;-86
2022/06/27 09:48:28;;;;;;;5.35;4.95;;;;;;;31.65;40.90;100744.56;4985389;28;20097;-86
2022/06/27 09:50:57;;;;;;;4.10;3.88;;;;;;;31.83;40.93;100751.88;4984732;28;20050;-87
2022/06/27 09:53:34;;;;;;;4.75;4.35;;;;;;;32.11;40.54;100749.13;4967874;28;21360;-87
2022/06/27 09:56:14;;;;;;;4.03;3.63;;;;;;;31.73;41.11;100757.31;4968882;28;20050;-85
2022/06/27 09:58:45;;;;;;;5.55;5.25;;;;;;;30.95;42.16;100768.31;4984948;28;20092;-86
2022/06/27 10:01:29;;;;;;;6.35;5.75;;;;;;;29.85;44.64;100762.88;4984738;28;20073;-84
2022/06/27 10:04:02;;;;;;;5.22;4.90;;;;;;;29.97;45.01;100758.28;4985205;28;20489;-86
2022/06/27 10:06:30;;;;;;;6.05;5.57;;;;;;;31.04;43.09;100756.63;4986274;28;20122;-85
2022/06/27 10:09:09;;;;;;;6.03;5.50;;;;;;;32.26;40.26;100746.81;5009978;28;20042;-84
2022/06/27 10:11:40;;;;;;;5.78;5.47;;;;;;;33.77;37.64;100754.91;4969098;28;20058;-85
2022/06/27 10:14:26;;;;;;;5.60;5.22;;;;;;;35.51;34.88;100755.91;5002156;28;20049;-86
2022/06/27 10:17:00;;;;;;;4.65;4.45;;;;;;;36.40;33.79;100744.78;4971006;28;20054;-85
2022/06/27 10:19:30;;;;;;;4.97;4.22;;;;;;;36.81;33.35;100746.34;4970093;28;20090;-86
2022/06/27 10:21:57;;;;;;;6.70;4.80;;;;;;;36.92;31.69;100740.44;4984870;28;20039;-86
2022/06/27 10:24:25;;;;;;;5.35;4.95;;;;;;;36.83;32.50;100738.81;4984525;28;20781;-86
2022/06/27 10:26:58;;;;;;;4.47;4.18;;;;;;;36.18;33.53;100730.94;4985264;28;20068;-87
2022/06/27 10:29:29;;;;;;;4.80;4.40;;;;;;;36.68;32.45;100730.59;4975331;28;20528;-86
2022/06/27 10:31:57;;;;;;;4.95;4.65;;;;;;;37.60;31.45;100726.78;4986861;28;20078;-86
2022/06/27 10:34:39;;;;;;;6.55;6.05;;;;;;;37.70;29.25;100730.03;4983692;28;20515;-87
2022/06/27 10:37:24;;;;;;;5.13;4.82;;;;;;;37.27;30.70;100737.19;4983060;28;20514;-86
2022/06/27 10:39:52;;;;;;;5.15;4.93;;;;;;;38.04;30.42;100736.78;4983897;28;20078;-85
2022/06/27 10:42:54;;;;;;;6.15;5.75;;;;;;;37.34;30.23;100735.44;4999452;28;20049;-87
2022/06/27 10:45:21;;;;;;;5.93;5.53;;;;;;;35.69;33.09;100732.03;4985473;28;20121;-86
2022/06/27 10:47:57;;;;;;;7.13;6.00;;;;;;;35.66;33.59;100742.41;4986063;28;20034;-85
2022/06/27 10:50:28;;;;;;;5.93;5.53;;;;;;;36.46;32.29;100737.75;4965913;28;20047;-85
2022/06/27 10:53:20;;;;;;;5.53;4.93;;;;;;;37.39;30.45;100744.75;4982494;28;20050;-86
2022/06/27 10:55:50;;;;;;;6.07;5.63;;;;;;;36.45;32.02;100739.63;4983666;28;20073;-87
2022/06/27 10:58:33;;;;;;;6.63;6.13;;;;;;;34.68;34.59;100757.84;4985342;28;20042;-87
2022/06/27 11:01:22;;;;;;;7.85;7.35;;;;;;;33.39;37.08;100755.22;4985051;28;20050;-85
2022/06/27 11:03:55;;;;;;;7.20;6.57;;;;;;;32.38;39.23;100755.56;4983345;28;20061;-85
2022/06/27 11:06:23;;;;;;;7.72;7.03;;;;;;;31.72;40.63;100752.06;4963604;28;20060;-86
2022/06/27 11:11:34;;;;;;;7.18;6.57;;;;;;;32.30;40.39;100748.19;4980128;28;20293;-86
2022/06/27 11:14:03;;;;;;;7.43;6.88;;;;;;;33.78;37.51;100740.28;4983316;28;20677;-88
2022/06/27 11:16:33;;;;;;;8.93;8.25;;;;;;;33.86;37.29;100739.50;4966449;28;20186;-86
2022/06/27 11:20:04;;;;;;;6.95;6.43;;;;;;;33.30;38.41;100742.63;4966048;28;20046;-87
2022/06/27 11:21:52;;;;;;;7.73;6.90;;;;;;;32.87;38.65;100742.47;4972505;28;20085;-86
2022/06/27 11:24:19;;;;;;;7.82;7.10;;;;;;;32.62;39.61;100742.25;4985934;28;20116;-86
2022/06/27 11:26:57;;;;;;;7.60;7.10;;;;;;;32.48;39.49;100734.66;4985509;28;20043;-87
2022/06/27 11:32:23;;;;;;;7.88;7.18;;;;;;;32.70;39.58;100752.31;4992077;28;20117;-83
2022/06/27 11:34:55;;;;;;;7.80;7.20;;;;;;;32.33;40.15;100742.47;4991175;28;20046;-85
2022/06/27 11:37:25;;;;;;;;;;;;;;;32.19;40.74;100743.88;4973166;28;20054;-85
2022/06/27 11:40:06;;;;;;;8.30;7.32;;;;;;;33.63;38.45;100745.50;4974626;28;19925;-86
2022/06/27 11:42:36;;;;;;;7.35;6.75;;;;;;;34.59;36.57;100746.97;4993305;28;20049;-84
2022/06/27 11:45:10;;;;;;;8.48;7.68;;;;;;;34.00;37.39;100743.47;4979483;28;20057;-86
2022/06/27 11:47:47;;;;;;;8.05;7.55;;;;;;;33.45;38.30;100729.28;4993941;28;20050;-88
2022/06/27 11:50:20;;;;;;;7.90;7.40;;;;;;;34.31;37.10;100730.09;4990990;28;20043;-85
2022/06/27 11:52:55;;;;;;;8.60;7.80;;;;;;;35.49;35.59;100718.00;4985509;28;20061;-85
2022/06/27 11:55:25;;;;;;;8.50;7.70;;;;;;;35.83;34.55;100735.88;4985094;28;20387;-85